createdAt,value
2018-06-09T00:04:13.013Z,75.27
2018-06-09T00:09:08.791Z,77.67
2018-06-09T00:14:03.403Z,82.10
2018-06-09T00:18:58.264Z,81.37
2018-06-09T00:23:52.842Z,87.20
2018-06-09T00:28:47.747Z,84.67
2018-06-09T00:33:42.289Z,90.53
2018-06-09T00:38:36.954Z,95.73
2018-06-09T00:43:31.460Z,98.53
2018-06-09T00:48:26.919Z,93.43
2018-06-09T00:53:21.622Z,99.10
2018-06-09T00:58:16.242Z,101.33
2018-06-09T01:03:10.993Z,101.77
2018-06-09T01:08:05.496Z,103.07
2018-06-09T01:13:00.536Z,106.73
2018-06-09T01:17:55.189Z,111.77
2018-06-09T01:22:49.673Z,112.43
2018-06-09T01:27:44.174Z,110.77
2018-06-09T01:32:40.160Z,121.90
2018-06-09T01:37:34.694Z,125.43
2018-06-09T01:42:30.035Z,120.53
2018-06-09T01:47:24.824Z,120.37
2018-06-09T01:52:19.564Z,120.07
2018-06-09T01:57:14.028Z,109.03
2018-06-09T02:02:08.978Z,112.03
2018-06-09T02:07:03.454Z,112.97
2018-06-09T02:11:58.276Z,97.77
2018-06-09T02:16:53.516Z,106.83
2018-06-09T02:21:48.724Z,106.33
2018-06-09T02:26:44.363Z,105.77
2018-06-09T02:31:39.166Z,105.77
2018-06-09T02:36:33.804Z,96.63
2018-06-09T02:41:28.586Z,93.53
2018-06-09T02:46:23.677Z,86.50
2018-06-09T02:51:18.284Z,90.00
2018-06-09T02:56:12.863Z,82.87
2018-06-09T03:01:08.175Z,85.80
2018-06-09T03:06:02.765Z,72.93
2018-06-09T03:10:57.316Z,66.27
2018-06-09T03:15:51.598Z,71.87
2018-06-09T03:20:46.081Z,69.73
2018-06-09T03:25:40.580Z,65.73
2018-06-09T03:30:35.166Z,65.30
2018-06-09T03:35:29.881Z,64.87
2018-06-09T03:40:24.420Z,65.37
2018-06-09T03:45:18.949Z,66.00
2018-06-09T03:50:13.538Z,64.10
2018-06-09T03:55:08.095Z,65.10
2018-06-09T04:00:02.676Z,65.00
2018-06-09T04:04:57.987Z,66.27
2018-06-09T04:09:53.798Z,64.87
2018-06-09T04:14:48.913Z,64.97
2018-06-09T04:19:43.434Z,69.63
2018-06-09T04:24:37.900Z,66.67
2018-06-09T04:29:32.279Z,68.00
2018-06-09T04:34:26.871Z,66.43
2018-06-09T04:39:21.476Z,70.10
2018-06-09T04:44:16.231Z,71.57
2018-06-09T04:49:10.602Z,73.70
2018-06-09T04:54:05.500Z,77.53
2018-06-09T04:58:59.948Z,73.83
2018-06-09T05:03:54.455Z,80.03
2018-06-09T05:08:49.150Z,80.33
2018-06-09T05:13:43.408Z,86.67
2018-06-09T05:18:37.908Z,84.23
2018-06-09T05:23:32.413Z,85.73
2018-06-09T05:28:27.052Z,84.97
2018-06-09T05:33:21.534Z,75.57
2018-06-09T05:38:16.017Z,72.10
2018-06-09T05:43:11.184Z,66.93
2018-06-09T05:48:05.875Z,59.80
2018-06-09T05:53:00.490Z,56.30
2018-06-09T05:57:54.954Z,51.33
2018-06-09T06:02:49.604Z,47.50
2018-06-09T06:07:44.438Z,45.60
2018-06-09T06:12:38.999Z,47.23
2018-06-09T06:17:33.515Z,50.03
2018-06-09T06:22:28.310Z,49.47
2018-06-09T06:27:22.919Z,53.80
2018-06-09T06:32:17.530Z,52.20
2018-06-09T06:37:12.667Z,52.30
2018-06-09T06:42:07.320Z,50.63
2018-06-09T06:47:02.455Z,62.37
2018-06-09T06:51:57.174Z,62.20
2018-06-09T06:56:51.538Z,63.40
2018-06-09T07:01:46.689Z,62.47
2018-06-09T07:06:41.559Z,60.13
2018-06-09T07:11:36.889Z,55.80
2018-06-09T07:16:31.642Z,60.57
2018-06-09T07:21:26.729Z,63.67
2018-06-09T07:26:21.412Z,70.33
2018-06-09T07:31:16.214Z,68.17
2018-06-09T07:36:10.816Z,73.80
2018-06-09T07:41:05.418Z,74.57
2018-06-09T07:45:59.937Z,67.43
2018-06-09T07:50:54.624Z,62.90
2018-06-09T07:55:49.561Z,59.37
2018-06-09T08:00:44.871Z,50.90
2018-06-09T08:05:40.207Z,51.13
2018-06-09T08:10:36.110Z,45.53
2018-06-09T08:15:31.330Z,44.43
2018-06-09T08:20:26.374Z,44.10
2018-06-09T08:25:21.334Z,44.87
2018-06-09T08:30:16.344Z,40.80
2018-06-09T08:35:11.793Z,40.73
2018-06-09T08:40:07.156Z,40.13
2018-06-09T08:45:02.333Z,39.23
2018-06-09T08:49:57.176Z,39.43
2018-06-09T08:54:52.050Z,37.97
2018-06-09T08:59:47.395Z,39.47
2018-06-09T09:04:42.149Z,37.63
2018-06-09T09:09:37.201Z,36.30
2018-06-09T09:14:34.031Z,35.47
2018-06-09T09:19:28.840Z,32.87
2018-06-09T09:24:23.570Z,30.50
2018-06-09T09:29:18.318Z,28.70
2018-06-09T09:34:13.078Z,30.37
2018-06-09T09:39:09.458Z,27.70
2018-06-09T09:44:04.607Z,26.43
2018-06-09T09:48:59.731Z,25.00
2018-06-09T09:53:54.717Z,26.03
2018-06-09T09:58:49.872Z,25.10
2018-06-09T10:03:44.992Z,25.80
2018-06-09T10:08:39.784Z,25.37
2018-06-09T10:13:34.582Z,22.80
2018-06-09T10:18:29.726Z,22.77
2018-06-09T10:23:24.516Z,24.47
2018-06-09T10:28:19.296Z,20.73
2018-06-09T10:33:14.728Z,22.17
2018-06-09T10:38:09.490Z,21.13
2018-06-09T10:43:04.500Z,22.00
2018-06-09T10:47:59.562Z,21.30
2018-06-09T10:53:07.977Z,22.27
2018-06-09T10:58:03.385Z,19.90
2018-06-09T11:02:58.269Z,20.97
2018-06-09T11:07:53.294Z,21.13
2018-06-09T11:12:48.182Z,22.30
2018-06-09T11:17:49.373Z,21.43
2018-06-09T11:22:44.204Z,22.73
2018-06-09T11:27:39.192Z,19.70
2018-06-09T11:32:34.180Z,19.97
2018-06-09T11:37:29.197Z,18.27
2018-06-09T11:42:23.971Z,16.97
2018-06-09T11:47:19.148Z,16.83
2018-06-09T11:52:13.930Z,16.73
2018-06-09T11:57:09.006Z,15.40
2018-06-09T12:02:03.545Z,16.13
2018-06-09T12:06:58.315Z,17.50
2018-06-09T12:11:53.192Z,16.73
2018-06-09T12:16:47.940Z,18.00
2018-06-09T12:21:42.678Z,14.67
2018-06-09T12:26:37.468Z,14.27
2018-06-09T12:31:32.476Z,16.73
2018-06-09T12:36:27.377Z,15.73
2018-06-09T12:41:22.158Z,17.63
2018-06-09T12:46:16.901Z,16.03
2018-06-09T12:51:11.636Z,16.97
2018-06-09T12:56:06.377Z,17.07
2018-06-09T13:01:01.204Z,18.10
2018-06-09T13:05:56.186Z,19.40
2018-06-09T13:10:52.011Z,22.80
2018-06-09T13:15:46.831Z,22.60
2018-06-09T13:20:42.188Z,20.53
2018-06-09T13:25:37.086Z,24.80
2018-06-09T13:30:31.952Z,20.80
2018-06-09T13:35:27.001Z,24.40
2018-06-09T13:40:22.260Z,22.57
2018-06-09T13:45:17.388Z,22.93
2018-06-09T13:50:12.202Z,20.83
2018-06-09T13:55:07.004Z,21.63
2018-06-09T14:00:02.438Z,24.87
2018-06-09T14:04:57.225Z,19.40
2018-06-09T14:09:51.953Z,19.80
2018-06-09T14:14:46.698Z,18.80
2018-06-09T14:19:41.881Z,18.27
2018-06-09T14:24:36.834Z,20.30
2018-06-09T14:29:31.725Z,20.53
2018-06-09T14:34:26.617Z,21.20
2018-06-09T14:39:22.429Z,21.43
2018-06-09T14:44:17.323Z,20.53
2018-06-09T14:49:12.048Z,22.60
2018-06-09T14:54:06.790Z,24.17
2018-06-09T14:59:02.017Z,19.23
2018-06-09T15:03:56.766Z,18.07
2018-06-09T15:08:51.584Z,18.57
2018-06-09T15:13:46.484Z,19.07
2018-06-09T15:18:41.464Z,21.53
2018-06-09T15:23:36.469Z,22.37
2018-06-09T15:28:31.319Z,23.63
2018-06-09T15:33:26.504Z,21.37
2018-06-09T15:38:21.213Z,19.37
2018-06-09T15:43:16.328Z,24.17
2018-06-09T15:48:11.424Z,18.33
2018-06-09T15:53:06.674Z,19.60
2018-06-09T15:58:02.006Z,17.90
2018-06-09T16:02:56.676Z,17.43
2018-06-09T16:07:51.695Z,18.90
2018-06-09T16:12:46.733Z,18.20
2018-06-09T16:17:41.620Z,16.97
2018-06-09T16:22:36.624Z,20.80
2018-06-09T16:27:31.447Z,18.60
2018-06-09T16:32:26.595Z,17.60
2018-06-09T16:37:21.343Z,18.87
2018-06-09T16:42:16.320Z,15.70
2018-06-09T16:47:11.028Z,17.20
2018-06-09T16:52:06.466Z,16.87
2018-06-09T16:57:01.880Z,14.90
2018-06-09T17:01:56.641Z,14.80
2018-06-09T17:06:51.422Z,14.40
2018-06-09T17:11:46.209Z,13.63
2018-06-09T17:16:52.244Z,14.33
2018-06-09T17:21:47.011Z,13.37
2018-06-09T17:26:41.763Z,12.90
2018-06-09T17:31:36.644Z,12.70
2018-06-09T17:36:41.460Z,14.17
2018-06-09T17:41:46.786Z,14.47
2018-06-09T17:46:51.805Z,13.17
2018-06-09T17:51:47.804Z,12.80
2018-06-09T17:56:52.362Z,13.63
2018-06-09T18:01:55.125Z,13.07
2018-06-09T18:06:50.022Z,14.60
2018-06-09T18:11:44.969Z,13.80
2018-06-09T18:16:39.733Z,12.90
2018-06-09T18:21:34.673Z,14.77
2018-06-09T18:26:29.619Z,14.53
2018-06-09T18:31:24.621Z,15.50
2018-06-09T18:36:19.532Z,14.30
2018-06-09T18:41:14.314Z,15.80
2018-06-09T18:46:09.256Z,14.70
2018-06-09T18:51:04.021Z,15.77
2018-06-09T18:55:58.218Z,16.33
2018-06-09T19:00:52.792Z,16.67
2018-06-09T19:06:01.837Z,18.20
2018-06-09T19:10:56.877Z,17.10
2018-06-09T19:15:53.144Z,16.17
2018-06-09T19:20:48.765Z,16.97
2018-06-09T19:25:44.169Z,16.93
2018-06-09T19:30:39.391Z,17.37
2018-06-09T19:35:35.000Z,17.67
2018-06-09T19:40:30.908Z,16.40
2018-06-09T19:45:26.360Z,16.73
2018-06-09T19:50:21.300Z,17.83
2018-06-09T19:55:16.170Z,16.07
2018-06-09T20:00:11.361Z,17.00
2018-06-09T20:05:06.515Z,17.50
2018-06-09T20:10:01.843Z,16.43
2018-06-09T20:14:56.344Z,18.83
2018-06-09T20:19:51.609Z,18.43
2018-06-09T20:24:46.276Z,17.90
2018-06-09T20:29:41.338Z,17.80
2018-06-09T20:34:35.924Z,17.37
2018-06-09T20:39:31.925Z,19.23
2018-06-09T20:44:26.689Z,18.03
2018-06-09T20:49:21.575Z,18.33
2018-06-09T20:54:16.297Z,17.53
2018-06-09T20:59:12.144Z,17.60
2018-06-09T21:04:07.922Z,17.33
2018-06-09T21:09:02.372Z,17.77
2018-06-09T21:13:57.488Z,18.67
2018-06-09T21:18:52.307Z,17.63
2018-06-09T21:23:47.259Z,16.87
2018-06-09T21:28:47.295Z,16.20
2018-06-09T21:35:03.564Z,17.80
2018-06-09T21:40:02.230Z,19.83
2018-06-09T21:45:03.802Z,25.60
2018-06-09T21:49:58.584Z,24.43
2018-06-09T21:54:53.608Z,24.67
2018-06-09T21:59:48.697Z,27.77
2018-06-09T22:04:43.661Z,29.10
2018-06-09T22:09:39.393Z,32.73
2018-06-09T22:14:34.074Z,29.23
2018-06-09T22:19:28.752Z,29.03
2018-06-09T22:24:23.514Z,27.70
2018-06-09T22:29:19.312Z,22.77
2018-06-09T22:34:14.317Z,20.57
2018-06-09T22:39:08.983Z,21.10
2018-06-09T22:44:04.061Z,20.10
2018-06-09T22:48:59.105Z,20.13
2018-06-09T22:53:54.082Z,21.00
2018-06-09T22:58:49.767Z,20.83
2018-06-09T23:03:44.523Z,22.27
2018-06-09T23:08:39.288Z,23.40
2018-06-09T23:13:34.647Z,23.87
2018-06-09T23:18:29.622Z,23.83
2018-06-09T23:23:24.175Z,21.83
2018-06-09T23:28:18.586Z,22.30
2018-06-09T23:33:13.741Z,23.80
2018-06-09T23:38:10.586Z,22.90
2018-06-09T23:43:05.910Z,20.50
2018-06-09T23:48:00.768Z,22.20
2018-06-09T23:52:55.688Z,23.77
2018-06-09T23:57:50.828Z,24.77
